createdAt,value
2022-08-17T00:00:43.956Z,77.14
2022-08-17T00:01:52.849Z,77.04
2022-08-17T00:02:36.008Z,77.25
2022-08-17T00:03:33.818Z,77.34
2022-08-17T00:04:33.782Z,77.55
2022-08-17T00:05:33.770Z,77.44
2022-08-17T00:06:33.771Z,77.64
2022-08-17T00:07:33.745Z,77.64
2022-08-17T00:08:33.735Z,77.64
2022-08-17T00:09:33.723Z,77.55
2022-08-17T00:10:33.740Z,77.34
2022-08-17T00:11:33.723Z,77.34
2022-08-17T00:12:43.098Z,77.34
2022-08-17T00:13:33.687Z,77.25
2022-08-17T00:14:33.684Z,77.14
2022-08-17T00:15:33.664Z,76.38
2022-08-17T00:16:55.581Z,76.18
2022-08-17T00:17:33.667Z,76.28
2022-08-17T00:19:01.432Z,76.72
2022-08-17T00:19:33.624Z,76.92
2022-08-17T00:20:35.066Z,77.32
2022-08-17T00:22:28.679Z,77.62
2022-08-17T00:22:37.911Z,77.51
2022-08-17T00:23:33.578Z,77.82
2022-08-17T00:24:33.579Z,77.62
2022-08-17T00:25:33.557Z,77.82
2022-08-17T00:26:44.025Z,77.92
2022-08-17T00:27:33.551Z,78.12
2022-08-17T00:28:33.517Z,78.31
2022-08-17T00:29:33.521Z,78.42
2022-08-17T00:30:51.195Z,78.52
2022-08-17T00:31:33.512Z,78.81
2022-08-17T00:33:15.073Z,79.11
2022-08-17T00:33:33.485Z,79.72
2022-08-17T00:34:33.455Z,79.91
2022-08-17T00:35:33.458Z,80.11
2022-08-17T00:36:33.466Z,80.11
2022-08-17T00:37:33.439Z,80.21
2022-08-17T00:38:33.416Z,80.71
2022-08-17T00:39:33.475Z,81.05
2022-08-17T00:40:40.797Z,80.85
2022-08-17T00:41:33.423Z,81.01
2022-08-17T00:42:33.371Z,81.01
2022-08-17T00:43:33.378Z,81.31
2022-08-17T00:44:33.357Z,81.41
2022-08-17T00:45:33.349Z,81.61
2022-08-17T00:46:33.342Z,81.51
2022-08-17T00:47:33.322Z,81.41
2022-08-17T00:48:33.313Z,81.41
2022-08-17T00:49:33.300Z,81.21
2022-08-17T00:50:33.284Z,81.01
2022-08-17T00:51:33.296Z,81.21
2022-08-17T00:52:33.274Z,80.82
2022-08-17T00:53:33.257Z,81.41
2022-08-17T00:54:33.243Z,81.45
2022-08-17T00:55:33.248Z,81.21
2022-08-17T00:56:33.241Z,81.21
2022-08-17T00:57:33.213Z,81.12
2022-08-17T00:58:36.120Z,81.21
2022-08-17T00:59:33.194Z,80.82
2022-08-17T01:00:33.184Z,80.62
2022-08-17T01:01:33.236Z,79.32
2022-08-17T01:02:34.985Z,80.02
2022-08-17T01:03:33.158Z,79.72
2022-08-17T01:04:33.152Z,79.32
2022-08-17T01:05:33.135Z,79.02
2022-08-17T01:06:33.141Z,79.22
2022-08-17T01:07:33.115Z,79.22
2022-08-17T01:08:33.092Z,79.22
2022-08-17T01:09:33.093Z,78.92
2022-08-17T01:11:00.083Z,79.32
2022-08-17T01:11:33.103Z,79.52
2022-08-17T01:12:33.072Z,79.32
2022-08-17T01:13:38.156Z,79.61
2022-08-17T01:14:33.047Z,79.72
2022-08-17T01:15:33.049Z,79.88
2022-08-17T01:16:33.032Z,79.97
2022-08-17T01:17:33.005Z,79.78
2022-08-17T01:18:32.993Z,79.88
2022-08-17T01:19:32.983Z,80.08
2022-08-17T01:20:48.272Z,79.97
2022-08-17T01:21:32.998Z,80.08
2022-08-17T01:22:32.948Z,80.08
2022-08-17T01:23:32.945Z,80.38
2022-08-17T01:24:33.822Z,80.41
2022-08-17T01:25:32.933Z,80.51
2022-08-17T01:26:32.923Z,80.62
2022-08-17T01:27:32.906Z,80.62
2022-08-17T01:28:53.137Z,80.82
2022-08-17T01:29:32.889Z,80.91
2022-08-17T01:30:58.136Z,80.71
2022-08-17T01:31:32.882Z,80.71
2022-08-17T01:32:32.845Z,80.62
2022-08-17T01:33:32.846Z,80.62
2022-08-17T01:34:35.269Z,80.62
2022-08-17T01:35:32.826Z,80.55
2022-08-17T01:36:32.833Z,80.41
2022-08-17T01:37:32.803Z,80.51
2022-08-17T01:38:32.783Z,80.21
2022-08-17T01:39:32.890Z,80.41
2022-08-17T01:40:32.762Z,80.41
2022-08-17T01:41:32.766Z,80.51
2022-08-17T01:42:32.758Z,80.62
2022-08-17T01:43:32.736Z,80.71
2022-08-17T01:44:32.724Z,80.91
2022-08-17T01:45:32.708Z,81.05
2022-08-17T01:46:32.708Z,81.15
2022-08-17T01:47:32.686Z,81.35
2022-08-17T01:48:32.813Z,81.45
2022-08-17T01:49:32.682Z,81.65
2022-08-17T01:50:32.660Z,81.75
2022-08-17T01:51:33.029Z,81.65
2022-08-17T01:52:32.633Z,81.45
2022-08-17T01:53:32.625Z,81.45
2022-08-17T01:54:32.610Z,81.15
2022-08-17T01:55:32.605Z,80.85
2022-08-17T01:56:32.611Z,81.05
2022-08-17T01:57:32.583Z,81.25
2022-08-17T01:58:32.569Z,81.15
2022-08-17T01:59:32.559Z,80.95
2022-08-17T02:00:47.823Z,80.85
2022-08-17T02:01:32.671Z,80.85
2022-08-17T02:02:32.527Z,80.35
2022-08-17T02:03:32.524Z,80.45
2022-08-17T02:04:32.520Z,80.45
2022-08-17T02:05:32.500Z,80.26
2022-08-17T02:06:53.618Z,79.85
2022-08-17T02:07:32.496Z,80.26
2022-08-17T02:08:38.815Z,80.15
2022-08-17T02:09:32.467Z,80.05
2022-08-17T02:10:33.826Z,79.85
2022-08-17T02:11:32.468Z,79.75
2022-08-17T02:12:38.877Z,79.65
2022-08-17T02:13:32.420Z,79.35
2022-08-17T02:14:38.438Z,79.46
2022-08-17T02:15:32.404Z,79.46
2022-08-17T02:16:37.441Z,79.85
2022-08-17T02:17:35.060Z,79.59
2022-08-17T02:18:32.361Z,79.69
2022-08-17T02:19:32.361Z,80.19
2022-08-17T02:20:42.174Z,80.19
2022-08-17T02:21:32.356Z,80.09
2022-08-17T02:22:32.317Z,80.39
2022-08-17T02:23:32.316Z,80.59
2022-08-17T02:24:58.944Z,80.49
2022-08-17T02:25:32.295Z,80.59
2022-08-17T02:26:32.294Z,80.59
2022-08-17T02:27:32.269Z,80.49
2022-08-17T02:28:32.288Z,80.53
2022-08-17T02:29:32.247Z,80.59
2022-08-17T02:31:02.780Z,80.59
2022-08-17T02:31:32.255Z,80.49
2022-08-17T02:32:32.212Z,80.43
2022-08-17T02:33:41.680Z,80.53
2022-08-17T02:34:32.195Z,80.53
2022-08-17T02:35:32.183Z,80.53
2022-08-17T02:36:32.188Z,80.53
2022-08-17T02:37:32.164Z,80.83
2022-08-17T02:38:32.150Z,81.13
2022-08-17T02:39:32.257Z,81.23
2022-08-17T02:40:35.966Z,81.29
2022-08-17T02:41:32.166Z,81.29
2022-08-17T02:42:32.114Z,81.39
2022-08-17T02:43:32.100Z,81.39
2022-08-17T02:44:39.010Z,81.29
2022-08-17T02:45:32.089Z,81.39
2022-08-17T02:46:32.093Z,81.19
2022-08-17T02:47:32.061Z,81.09
2022-08-17T02:48:32.168Z,80.99
2022-08-17T02:49:32.036Z,80.79
2022-08-17T02:50:32.024Z,80.79
2022-08-17T02:51:32.042Z,80.79
2022-08-17T02:52:42.697Z,80.79
2022-08-17T02:53:35.873Z,80.69
2022-08-17T02:54:41.680Z,80.59
2022-08-17T02:55:31.981Z,80.39
2022-08-17T02:56:31.978Z,80.69
2022-08-17T02:57:31.957Z,80.59
2022-08-17T02:58:35.535Z,80.39
2022-08-17T02:59:31.967Z,80.89
2022-08-17T03:00:31.925Z,80.33
2022-08-17T03:01:32.033Z,80.73
2022-08-17T03:02:31.898Z,81.23
2022-08-17T03:03:31.893Z,81.43
2022-08-17T03:04:33.801Z,81.63
2022-08-17T03:05:31.868Z,81.63
2022-08-17T03:06:31.871Z,81.63
2022-08-17T03:07:31.853Z,81.43
2022-08-17T03:08:31.845Z,81.53
2022-08-17T03:09:31.832Z,81.43
2022-08-17T03:10:31.820Z,81.43
2022-08-17T03:11:31.826Z,81.33
2022-08-17T03:12:31.801Z,81.53
2022-08-17T03:13:31.783Z,81.57
2022-08-17T03:14:31.772Z,81.63
2022-08-17T03:15:31.839Z,81.63
2022-08-17T03:16:31.770Z,81.53
2022-08-17T03:17:31.748Z,81.43
2022-08-17T03:18:31.731Z,81.23
2022-08-17T03:19:31.724Z,81.23
2022-08-17T03:20:31.710Z,81.23
2022-08-17T03:21:31.681Z,81.33
2022-08-17T03:22:36.933Z,81.43
2022-08-17T03:23:31.696Z,81.53
2022-08-17T03:24:31.674Z,81.63
2022-08-17T03:25:31.659Z,81.73
2022-08-17T03:26:31.663Z,81.63
2022-08-17T03:27:31.647Z,81.43
2022-08-17T03:28:31.624Z,81.43
2022-08-17T03:29:31.576Z,81.63
2022-08-17T03:30:31.562Z,81.27
2022-08-17T03:31:31.593Z,81.77
2022-08-17T03:32:31.532Z,81.47
2022-08-17T03:33:31.529Z,82.27
2022-08-17T03:34:31.515Z,82.67
2022-08-17T03:35:31.502Z,82.87
2022-08-17T03:36:31.506Z,82.87
2022-08-17T03:37:31.485Z,82.77
2022-08-17T03:38:39.095Z,82.57
2022-08-17T03:39:31.574Z,82.37
2022-08-17T03:40:55.058Z,82.17
2022-08-17T03:41:31.474Z,81.97
2022-08-17T03:42:32.964Z,81.87
2022-08-17T03:43:31.443Z,81.77
2022-08-17T03:44:31.403Z,81.47
2022-08-17T03:45:31.396Z,81.47
2022-08-17T03:46:34.489Z,81.47
2022-08-17T03:47:31.383Z,81.47
2022-08-17T03:48:31.359Z,81.57
2022-08-17T03:49:31.359Z,81.67
2022-08-17T03:50:31.355Z,81.77
2022-08-17T03:51:33.403Z,81.67
2022-08-17T03:52:31.317Z,81.77
2022-08-17T03:53:31.316Z,81.63
2022-08-17T03:54:31.303Z,81.53
2022-08-17T03:55:36.188Z,81.53
2022-08-17T03:56:31.298Z,81.43
2022-08-17T03:57:31.276Z,81.43
2022-08-17T03:58:31.257Z,81.53
2022-08-17T03:59:31.251Z,81.33
2022-08-17T04:00:31.239Z,81.43
2022-08-17T04:01:31.320Z,81.53
2022-08-17T04:02:31.228Z,81.43
2022-08-17T04:03:31.208Z,81.33
2022-08-17T04:04:31.197Z,81.37
2022-08-17T04:05:31.189Z,81.37
2022-08-17T04:06:31.188Z,81.57
2022-08-17T04:07:31.189Z,81.87
2022-08-17T04:08:31.154Z,82.07
2022-08-17T04:09:31.150Z,81.97
2022-08-17T04:10:31.135Z,82.07
2022-08-17T04:11:31.144Z,82.07
2022-08-17T04:12:31.421Z,82.17
2022-08-17T04:13:31.102Z,81.97
2022-08-17T04:14:31.098Z,82.07
2022-08-17T04:15:31.083Z,81.97
2022-08-17T04:16:31.092Z,82.07
2022-08-17T04:17:31.065Z,81.97
2022-08-17T04:18:31.057Z,82.07
2022-08-17T04:19:31.048Z,81.97
2022-08-17T04:20:31.029Z,81.77
2022-08-17T04:21:31.034Z,81.77
2022-08-17T04:22:34.271Z,81.67
2022-08-17T04:23:30.993Z,81.47
2022-08-17T04:24:30.993Z,81.57
2022-08-17T04:25:30.988Z,81.43
2022-08-17T04:26:53.139Z,81.33
2022-08-17T04:27:30.962Z,81.23
2022-08-17T04:28:30.948Z,81.13
2022-08-17T04:29:50.087Z,81.03
2022-08-17T04:30:30.935Z,80.93
2022-08-17T04:31:30.927Z,80.73
2022-08-17T04:33:04.668Z,80.53
2022-08-17T04:33:30.896Z,80.53
2022-08-17T04:34:30.888Z,80.23
2022-08-17T04:35:30.871Z,80.23
2022-08-17T04:36:30.881Z,80.03
2022-08-17T04:37:30.851Z,79.93
2022-08-17T04:38:30.845Z,79.63
2022-08-17T04:39:33.715Z,79.03
2022-08-17T04:40:30.823Z,79.43
2022-08-17T04:41:30.822Z,79.13
2022-08-17T04:42:30.801Z,79.33
2022-08-17T04:43:30.791Z,79.33
2022-08-17T04:44:37.779Z,79.43
2022-08-17T04:45:32.107Z,79.33
2022-08-17T04:46:30.775Z,79.73
2022-08-17T04:47:30.747Z,79.73
2022-08-17T04:48:36.592Z,79.43
2022-08-17T04:49:30.732Z,79.43
2022-08-17T04:50:30.720Z,79.43
2022-08-17T04:51:30.718Z,79.43
2022-08-17T04:52:53.324Z,79.53
2022-08-17T04:53:30.685Z,79.53
2022-08-17T04:54:30.716Z,79.43
2022-08-17T04:55:30.661Z,79.13
2022-08-17T04:56:30.676Z,79.03
2022-08-17T04:57:30.644Z,79.09
2022-08-17T04:58:30.639Z,78.93
2022-08-17T04:59:30.622Z,78.79
2022-08-17T05:00:30.635Z,78.69
2022-08-17T05:01:30.637Z,78.49
2022-08-17T05:02:30.597Z,78.29
2022-08-17T05:03:30.585Z,78.39
2022-08-17T05:04:34.581Z,78.49
2022-08-17T05:05:30.570Z,78.29
2022-08-17T05:06:30.556Z,78.05
2022-08-17T05:07:31.698Z,78.25
2022-08-17T05:08:30.530Z,78.45
2022-08-17T05:09:30.512Z,78.45
2022-08-17T05:10:30.522Z,78.96
2022-08-17T05:11:30.494Z,78.85
2022-08-17T05:12:30.486Z,79.25
2022-08-17T05:13:30.474Z,79.16
2022-08-17T05:14:33.484Z,79.32
2022-08-17T05:15:33.036Z,79.32
2022-08-17T05:16:30.460Z,78.92
2022-08-17T05:17:30.432Z,78.72
2022-08-17T05:18:30.423Z,78.81
2022-08-17T05:19:30.411Z,78.72
2022-08-17T05:20:30.423Z,78.52
2022-08-17T05:21:30.388Z,78.42
2022-08-17T05:22:30.380Z,78.31
2022-08-17T05:23:37.855Z,78.12
2022-08-17T05:24:42.777Z,77.72
2022-08-17T05:25:32.771Z,77.42
2022-08-17T05:26:30.345Z,77.51
2022-08-17T05:27:35.256Z,77.51
2022-08-17T05:28:30.396Z,77.62
2022-08-17T05:29:33.646Z,77.68
2022-08-17T05:30:30.318Z,77.58
2022-08-17T05:31:30.289Z,77.48
2022-08-17T05:32:38.121Z,77.28
2022-08-17T05:33:30.266Z,77.28
2022-08-17T05:34:30.258Z,77.08
2022-08-17T05:35:30.257Z,76.78
2022-08-17T05:36:41.862Z,76.48
2022-08-17T05:37:30.233Z,76.38
2022-08-17T05:38:30.217Z,76.65
2022-08-17T05:39:30.242Z,76.25
2022-08-17T05:40:32.896Z,76.25
2022-08-17T05:41:30.179Z,76.54
2022-08-17T05:42:30.200Z,76.34
2022-08-17T05:43:30.163Z,76.95
2022-08-17T05:44:30.155Z,76.45
2022-08-17T05:45:54.257Z,76.75
2022-08-17T05:46:30.138Z,76.54
2022-08-17T05:47:30.134Z,76.25
2022-08-17T05:48:39.650Z,76.34
2022-08-17T05:49:30.102Z,75.01
2022-08-17T05:50:30.110Z,74.71
2022-08-17T05:51:30.075Z,74.21
2022-08-17T05:52:30.077Z,74.71
2022-08-17T05:53:30.055Z,73.02
2022-08-17T05:54:30.055Z,74.38
2022-08-17T05:55:30.043Z,74.98
2022-08-17T05:56:30.667Z,75.18
2022-08-17T05:57:30.013Z,75.07
2022-08-17T05:58:30.024Z,74.88
2022-08-17T05:59:29.994Z,74.88
2022-08-17T06:00:31.189Z,74.15
2022-08-17T06:01:30.030Z,74.64
2022-08-17T06:02:29.964Z,74.44
2022-08-17T06:03:29.952Z,74.24
2022-08-17T06:04:29.941Z,73.05
2022-08-17T06:05:29.944Z,73.14
2022-08-17T06:06:31.503Z,73.65
2022-08-17T06:07:29.908Z,73.55
2022-08-17T06:08:29.905Z,73.25
2022-08-17T06:09:33.635Z,71.85
2022-08-17T06:10:29.895Z,70.75
2022-08-17T06:11:29.869Z,71.75
2022-08-17T06:12:29.957Z,71.25
2022-08-17T06:13:29.851Z,71.65
2022-08-17T06:14:29.840Z,72.05
2022-08-17T06:15:29.844Z,72.25
2022-08-17T06:16:34.051Z,71.81
2022-08-17T06:17:29.812Z,71.92
2022-08-17T06:18:29.801Z,71.62
2022-08-17T06:19:29.780Z,70.42
2022-08-17T06:20:29.789Z,70.92
2022-08-17T06:21:31.921Z,70.72
2022-08-17T06:22:29.753Z,70.82
2022-08-17T06:23:29.738Z,70.32
2022-08-17T06:24:29.733Z,70.68
2022-08-17T06:25:29.737Z,70.49
2022-08-17T06:26:38.291Z,69.89
2022-08-17T06:27:29.703Z,70.09
2022-08-17T06:28:29.691Z,69.89
2022-08-17T06:29:29.708Z,68.20
2022-08-17T06:30:59.995Z,68.79
2022-08-17T06:31:29.666Z,69.39
2022-08-17T06:32:29.662Z,68.40
2022-08-17T06:33:29.655Z,68.40
2022-08-17T06:34:29.638Z,67.30
2022-08-17T06:35:32.049Z,68.00
2022-08-17T06:36:29.616Z,67.70
2022-08-17T06:37:29.747Z,67.40
2022-08-17T06:38:37.675Z,67.57
2022-08-17T06:39:29.633Z,67.86
2022-08-17T06:40:29.582Z,67.86
2022-08-17T06:41:29.557Z,67.67
2022-08-17T06:43:04.878Z,67.77
2022-08-17T06:43:29.552Z,66.97
2022-08-17T06:44:43.597Z,64.58
2022-08-17T06:45:29.523Z,64.69
2022-08-17T06:46:29.505Z,65.08
2022-08-17T06:47:29.490Z,65.84
2022-08-17T06:48:29.495Z,66.44
2022-08-17T06:49:29.487Z,67.04
2022-08-17T06:50:29.473Z,67.74
2022-08-17T06:51:29.449Z,65.35
2022-08-17T06:52:46.076Z,65.45
2022-08-17T06:53:29.431Z,64.25
2022-08-17T06:54:29.432Z,63.95
2022-08-17T06:55:32.202Z,64.85
2022-08-17T06:56:53.425Z,64.75
2022-08-17T06:57:29.390Z,64.36
2022-08-17T06:58:29.800Z,65.22
2022-08-17T06:59:34.784Z,65.52
2022-08-17T07:00:29.407Z,66.01
2022-08-17T07:01:29.413Z,66.01
2022-08-17T07:02:51.169Z,65.52
2022-08-17T07:03:29.328Z,65.42
2022-08-17T07:04:29.334Z,65.19
2022-08-17T07:05:29.300Z,64.79
2022-08-17T07:06:29.294Z,65.19
2022-08-17T07:07:29.280Z,62.60
2022-08-17T07:08:32.069Z,63.70
2022-08-17T07:09:29.258Z,64.19
2022-08-17T07:10:29.268Z,63.76
2022-08-17T07:11:29.245Z,62.18
2022-08-17T07:12:29.234Z,61.88
2022-08-17T07:13:29.221Z,61.78
2022-08-17T07:14:29.239Z,62.37
2022-08-17T07:15:29.196Z,61.58
2022-08-17T07:16:29.189Z,62.45
2022-08-17T07:17:46.488Z,62.54
2022-08-17T07:18:29.181Z,62.94
2022-08-17T07:19:29.168Z,62.45
2022-08-17T07:20:29.150Z,61.22
2022-08-17T07:21:29.132Z,61.91
2022-08-17T07:22:29.145Z,61.82
2022-08-17T07:23:29.120Z,61.82
2022-08-17T07:24:30.056Z,61.29
2022-08-17T07:25:29.096Z,60.80
2022-08-17T07:26:29.089Z,60.50
2022-08-17T07:27:29.072Z,60.89
2022-08-17T07:28:29.068Z,61.79
2022-08-17T07:29:29.070Z,61.86
2022-08-17T07:30:29.046Z,61.36
2022-08-17T07:31:29.036Z,61.46
2022-08-17T07:32:29.026Z,60.57
2022-08-17T07:33:29.010Z,59.18
2022-08-17T07:34:29.227Z,60.57
2022-08-17T07:35:31.222Z,60.05
2022-08-17T07:36:30.255Z,59.75
2022-08-17T07:37:28.975Z,59.62
2022-08-17T07:38:28.962Z,59.12
2022-08-17T07:39:28.995Z,59.19
2022-08-17T07:40:28.967Z,58.97
2022-08-17T07:41:57.543Z,58.05
2022-08-17T07:42:28.923Z,58.02
2022-08-17T07:43:29.467Z,56.51
2022-08-17T07:44:28.911Z,54.88
2022-08-17T07:45:28.886Z,53.84
2022-08-17T07:46:28.880Z,52.43
2022-08-17T07:47:28.860Z,51.50
2022-08-17T07:48:28.863Z,51.74
2022-08-17T07:49:28.862Z,50.42
2022-08-17T07:50:28.838Z,50.59
2022-08-17T07:51:28.829Z,50.27
2022-08-17T07:52:50.797Z,48.55
2022-08-17T07:53:28.807Z,48.82
2022-08-17T07:54:28.808Z,48.01
2022-08-17T07:55:28.780Z,47.42
2022-08-17T07:56:28.771Z,47.91
2022-08-17T07:57:30.147Z,46.72
2022-08-17T07:58:28.754Z,45.54
2022-08-17T07:59:33.498Z,46.79
2022-08-17T08:00:32.052Z,46.40
2022-08-17T08:01:39.650Z,46.28
2022-08-17T08:02:31.711Z,45.76
2022-08-17T08:03:28.709Z,44.98
2022-08-17T08:04:59.334Z,44.30
2022-08-17T08:05:49.309Z,44.09
2022-08-17T08:06:28.685Z,44.84
2022-08-17T08:07:28.661Z,44.73
2022-08-17T08:08:28.658Z,45.02
2022-08-17T08:09:28.658Z,44.14
2022-08-17T08:10:28.638Z,44.82
2022-08-17T08:11:28.624Z,44.73
2022-08-17T08:12:33.354Z,43.85
2022-08-17T08:13:28.618Z,45.12
2022-08-17T08:14:28.882Z,44.82
2022-08-17T08:15:28.584Z,45.04
2022-08-17T08:16:28.579Z,44.57
2022-08-17T08:17:28.562Z,45.47
2022-08-17T08:18:54.497Z,46.59
2022-08-17T08:19:28.569Z,47.52
2022-08-17T08:20:37.669Z,48.16
2022-08-17T08:21:28.532Z,47.10
2022-08-17T08:22:28.524Z,48.96
2022-08-17T08:23:28.505Z,49.26
2022-08-17T08:24:30.154Z,48.18
2022-08-17T08:25:28.837Z,46.59
2022-08-17T08:26:28.476Z,47.06
2022-08-17T08:27:28.471Z,46.37
2022-08-17T08:28:28.461Z,47.47
2022-08-17T08:29:28.477Z,45.55
2022-08-17T08:30:28.441Z,45.57
2022-08-17T08:31:28.435Z,49.16
2022-08-17T08:32:28.424Z,50.16
2022-08-17T08:33:28.407Z,48.71
2022-08-17T08:34:55.877Z,49.21
2022-08-17T08:35:28.420Z,50.12
2022-08-17T08:37:02.058Z,50.90
2022-08-17T08:37:34.794Z,51.10
2022-08-17T08:38:28.371Z,51.81
2022-08-17T08:39:28.417Z,52.40
2022-08-17T08:40:28.337Z,49.77
2022-08-17T08:41:28.333Z,48.98
2022-08-17T08:42:28.325Z,48.39
2022-08-17T08:43:28.333Z,49.01
2022-08-17T08:44:59.681Z,49.50
2022-08-17T08:45:28.343Z,50.29
2022-08-17T08:46:28.279Z,49.20
2022-08-17T08:47:28.270Z,49.72
2022-08-17T08:48:58.091Z,52.19
2022-08-17T08:49:59.155Z,53.27
2022-08-17T08:50:38.208Z,51.89
2022-08-17T08:51:28.239Z,52.48
2022-08-17T08:52:28.221Z,52.19
2022-08-17T08:53:28.224Z,51.82
2022-08-17T08:54:28.194Z,51.52
2022-08-17T08:55:28.193Z,52.21
2022-08-17T08:56:28.199Z,53.92
2022-08-17T08:57:33.802Z,53.79
2022-08-17T08:58:31.973Z,51.45
2022-08-17T08:59:28.158Z,51.75
2022-08-17T09:00:28.139Z,52.83
2022-08-17T09:01:28.217Z,53.52
2022-08-17T09:02:28.113Z,52.73
2022-08-17T09:03:50.939Z,52.73
2022-08-17T09:04:28.099Z,52.73
2022-08-17T09:05:28.096Z,53.12
2022-08-17T09:06:33.417Z,52.14
2022-08-17T09:07:28.081Z,53.03
2022-08-17T09:08:28.073Z,52.83
2022-08-17T09:09:28.060Z,53.03
2022-08-17T09:10:28.053Z,52.34
2022-08-17T09:11:28.034Z,51.45
2022-08-17T09:12:28.011Z,53.33
2022-08-17T09:13:28.022Z,53.62
2022-08-17T09:14:28.711Z,52.24
2022-08-17T09:15:27.989Z,51.45
2022-08-17T09:16:27.971Z,51.15
2022-08-17T09:17:27.971Z,51.25
2022-08-17T09:19:02.955Z,51.25
2022-08-17T09:19:27.967Z,52.24
2022-08-17T09:20:28.782Z,52.53
2022-08-17T09:21:27.923Z,52.63
2022-08-17T09:22:27.930Z,52.17
2022-08-17T09:23:27.908Z,51.47
2022-08-17T09:24:27.886Z,48.90
2022-08-17T09:25:27.893Z,50.76
2022-08-17T09:26:27.870Z,49.87
2022-08-17T09:27:27.880Z,51.15
2022-08-17T09:28:27.852Z,49.48
2022-08-17T09:29:27.840Z,51.94
2022-08-17T09:30:27.834Z,51.54
2022-08-17T09:31:33.129Z,51.75
2022-08-17T09:32:27.824Z,49.08
2022-08-17T09:33:27.799Z,51.54
2022-08-17T09:34:32.019Z,51.15
2022-08-17T09:35:36.622Z,52.24
2022-08-17T09:36:27.770Z,52.04
2022-08-17T09:37:27.774Z,52.34
2022-08-17T09:38:31.843Z,52.53
2022-08-17T09:39:27.839Z,50.46
2022-08-17T09:40:27.724Z,51.45
2022-08-17T09:41:27.716Z,51.45
2022-08-17T09:42:27.730Z,52.44
2022-08-17T09:43:27.703Z,50.26
2022-08-17T09:44:27.690Z,50.29
2022-08-17T09:45:27.691Z,48.71
2022-08-17T09:46:27.666Z,49.67
2022-08-17T09:47:27.656Z,49.96
2022-08-17T09:49:25.404Z,49.87
2022-08-17T09:51:05.013Z,51.35
2022-08-17T09:51:24.925Z,48.31
2022-08-17T09:52:24.930Z,47.81
2022-08-17T09:53:24.919Z,47.99
2022-08-17T09:54:38.060Z,48.58
2022-08-17T09:55:24.890Z,50.24
2022-08-17T09:56:24.870Z,48.93
2022-08-17T09:57:32.589Z,48.34
2022-08-17T09:58:28.982Z,50.71
2022-08-17T09:59:24.836Z,45.78
2022-08-17T10:00:24.824Z,48.63
2022-08-17T10:01:24.859Z,49.90
2022-08-17T10:02:24.819Z,48.22
2022-08-17T10:03:24.813Z,46.66
2022-08-17T10:04:29.341Z,46.15
2022-08-17T10:05:24.777Z,45.65
2022-08-17T10:06:24.759Z,44.25
2022-08-17T10:07:24.777Z,43.54
2022-08-17T10:08:24.740Z,43.44
2022-08-17T10:09:24.732Z,43.71
2022-08-17T10:10:24.719Z,44.11
2022-08-17T10:11:33.590Z,46.57
2022-08-17T10:12:29.988Z,46.37
2022-08-17T10:13:24.704Z,45.68
2022-08-17T10:14:37.836Z,46.20
2022-08-17T10:15:24.688Z,43.64
2022-08-17T10:16:24.662Z,46.50
2022-08-17T10:17:24.665Z,47.88
2022-08-17T10:18:24.640Z,48.66
2022-08-17T10:19:24.641Z,48.29
2022-08-17T10:20:24.618Z,47.80
2022-08-17T10:21:24.637Z,48.79
2022-08-17T10:22:35.363Z,48.02
2022-08-17T10:23:24.598Z,48.32
2022-08-17T10:24:24.613Z,49.10
2022-08-17T10:25:30.179Z,47.82
2022-08-17T10:26:24.582Z,45.46
2022-08-17T10:27:24.658Z,48.91
2022-08-17T10:28:28.731Z,48.81
2022-08-17T10:29:24.550Z,46.15
2022-08-17T10:30:24.540Z,45.56
2022-08-17T10:31:40.040Z,44.87
2022-08-17T10:32:24.517Z,46.74
2022-08-17T10:33:24.489Z,47.92
2022-08-17T10:34:24.489Z,47.72
2022-08-17T10:35:24.471Z,48.22
2022-08-17T10:36:24.463Z,47.63
2022-08-17T10:37:24.557Z,46.54
2022-08-17T10:38:24.783Z,44.18
2022-08-17T10:39:24.428Z,43.76
2022-08-17T10:40:24.529Z,45.14
2022-08-17T10:41:24.409Z,45.31
2022-08-17T10:42:32.619Z,47.28
2022-08-17T10:43:24.615Z,47.68
2022-08-17T10:44:39.013Z,48.07
2022-08-17T10:45:24.380Z,47.97
2022-08-17T10:46:31.244Z,48.19
2022-08-17T10:47:24.372Z,45.83
2022-08-17T10:48:24.335Z,48.69
2022-08-17T10:49:24.336Z,45.63
2022-08-17T10:50:24.313Z,45.24
2022-08-17T10:51:24.314Z,45.53
2022-08-17T10:52:25.063Z,46.59
2022-08-17T10:53:24.293Z,45.31
2022-08-17T10:54:24.284Z,45.81
2022-08-17T10:55:24.284Z,45.71
2022-08-17T10:56:24.257Z,47.19
2022-08-17T10:57:24.264Z,44.82
2022-08-17T10:58:24.247Z,47.97
2022-08-17T10:59:24.234Z,47.88
2022-08-17T11:00:27.491Z,48.37
2022-08-17T11:01:24.250Z,47.58
2022-08-17T11:02:24.214Z,48.47
2022-08-17T11:03:24.193Z,48.88
2022-08-17T11:04:24.188Z,49.38
2022-08-17T11:05:24.287Z,49.10
2022-08-17T11:06:24.157Z,49.01
2022-08-17T11:07:24.232Z,49.50
2022-08-17T11:08:24.132Z,50.29
2022-08-17T11:09:24.146Z,49.13
2022-08-17T11:10:24.117Z,49.20
2022-08-17T11:11:24.108Z,48.22
2022-08-17T11:12:24.109Z,49.79
2022-08-17T11:13:24.088Z,47.53
2022-08-17T11:14:24.086Z,46.64
2022-08-17T11:15:24.092Z,47.53
2022-08-17T11:16:24.055Z,48.12
2022-08-17T11:17:24.098Z,48.98
2022-08-17T11:18:24.048Z,47.60
2022-08-17T11:19:24.089Z,45.63
2022-08-17T11:20:24.018Z,45.53
2022-08-17T11:21:24.017Z,45.21
2022-08-17T11:22:24.039Z,44.70
2022-08-17T11:23:23.992Z,44.40
2022-08-17T11:24:23.979Z,45.49
2022-08-17T11:25:23.974Z,44.90
2022-08-17T11:26:23.985Z,47.26
2022-08-17T11:27:23.990Z,46.37
2022-08-17T11:28:23.933Z,44.90
2022-08-17T11:29:24.789Z,47.66
2022-08-17T11:30:23.915Z,44.33
2022-08-17T11:31:38.295Z,45.12
2022-08-17T11:32:23.944Z,44.40
2022-08-17T11:33:23.889Z,44.01
2022-08-17T11:34:23.880Z,43.42
2022-08-17T11:35:23.869Z,42.44
2022-08-17T11:36:23.853Z,42.71
2022-08-17T11:37:23.867Z,44.48
2022-08-17T11:38:23.857Z,45.47
2022-08-17T11:39:23.913Z,43.79
2022-08-17T11:40:23.831Z,43.99
2022-08-17T11:41:23.826Z,41.93
2022-08-17T11:42:23.822Z,41.61
2022-08-17T11:43:25.281Z,43.77
2022-08-17T11:44:23.772Z,44.36
2022-08-17T11:45:32.366Z,44.73
2022-08-17T11:46:23.759Z,44.54
2022-08-17T11:47:23.772Z,45.03
2022-08-17T11:48:28.454Z,44.34
2022-08-17T11:49:23.731Z,43.75
2022-08-17T11:50:27.688Z,42.57
2022-08-17T11:51:23.720Z,41.69
2022-08-17T11:52:23.737Z,42.75
2022-08-17T11:53:23.688Z,43.24
2022-08-17T11:54:32.951Z,44.02
2022-08-17T11:55:35.114Z,43.24
2022-08-17T11:56:23.665Z,41.27
2022-08-17T11:57:23.668Z,44.71
2022-08-17T11:58:23.641Z,42.06
2022-08-17T11:59:23.655Z,44.93
2022-08-17T12:00:23.633Z,45.32
2022-08-17T12:01:23.613Z,43.85
2022-08-17T12:02:23.618Z,42.38
2022-08-17T12:03:23.676Z,42.99
2022-08-17T12:04:23.616Z,42.20
2022-08-17T12:05:23.567Z,42.00
2022-08-17T12:06:23.559Z,44.56
2022-08-17T12:07:23.570Z,41.61
2022-08-17T12:08:23.540Z,40.82
2022-08-17T12:09:23.535Z,41.19
2022-08-17T12:10:23.525Z,42.57
2022-08-17T12:11:55.383Z,42.38
2022-08-17T12:12:23.520Z,42.28
2022-08-17T12:13:23.487Z,42.38
2022-08-17T12:14:35.698Z,40.80
2022-08-17T12:15:23.492Z,42.06
2022-08-17T12:16:23.489Z,41.77
2022-08-17T12:17:39.669Z,43.53
2022-08-17T12:18:23.461Z,41.64
2022-08-17T12:19:23.438Z,40.37
2022-08-17T12:20:23.418Z,41.35
2022-08-17T12:21:23.440Z,41.45
2022-08-17T12:22:23.412Z,41.56
2022-08-17T12:23:23.386Z,42.94
2022-08-17T12:24:23.385Z,42.16
2022-08-17T12:25:23.365Z,43.46
2022-08-17T12:26:23.358Z,44.83
2022-08-17T12:27:47.611Z,45.13
2022-08-17T12:28:23.777Z,43.38
2022-08-17T12:29:38.785Z,44.56
2022-08-17T12:30:23.325Z,45.05
2022-08-17T12:31:23.305Z,45.17
2022-08-17T12:32:23.320Z,43.20
2022-08-17T12:33:25.437Z,43.60
2022-08-17T12:34:23.289Z,42.71
2022-08-17T12:35:23.265Z,42.91
2022-08-17T12:36:23.266Z,41.83
2022-08-17T12:37:23.265Z,43.38
2022-08-17T12:38:32.806Z,44.85
2022-08-17T12:39:24.950Z,45.15
2022-08-17T12:40:23.218Z,45.15
2022-08-17T12:41:23.236Z,45.54
2022-08-17T12:42:23.218Z,46.06
2022-08-17T12:43:23.186Z,46.06
2022-08-17T12:44:23.208Z,46.06
2022-08-17T12:45:23.170Z,46.35
2022-08-17T12:46:23.165Z,46.65
2022-08-17T12:47:23.360Z,46.55
2022-08-17T12:48:23.137Z,46.77
2022-08-17T12:49:23.125Z,45.88
2022-08-17T12:50:29.833Z,47.16
2022-08-17T12:51:23.112Z,45.67
2022-08-17T12:52:23.186Z,41.61
2022-08-17T12:53:23.105Z,43.16